sensor_id;sensor_type;location;lat;lon;timestamp;P1;durP1;ratioP1;P2;durP2;ratioP2
35909;SDS011;22004;49.120;-0.200;2022-10-31T00:01:10;10.35;;;2.88;;
35909;SDS011;22004;49.120;-0.200;2022-10-31T00:03:40;10.77;;;2.65;;
35909;SDS011;22004;49.120;-0.200;2022-10-31T00:06:06;9.25;;;2.45;;
35909;SDS011;22004;49.120;-0.200;2022-10-31T00:08:31;7.75;;;2.97;;
35909;SDS011;22004;49.120;-0.200;2022-10-31T00:10:57;6.90;;;2.83;;
35909;SDS011;22004;49.120;-0.200;2022-10-31T00:13:22;10.98;;;3.10;;
35909;SDS011;22004;49.120;-0.200;2022-10-31T00:15:48;4.57;;;2.30;;
35909;SDS011;22004;49.120;-0.200;2022-10-31T00:18:13;12.82;;;3.95;;
35909;SDS011;22004;49.120;-0.200;2022-10-31T00:20:38;10.90;;;4.00;;
35909;SDS011;22004;49.120;-0.200;2022-10-31T00:23:04;3.75;;;2.35;;
35909;SDS011;22004;49.120;-0.200;2022-10-31T00:25:33;9.18;;;2.80;;
35909;SDS011;22004;49.120;-0.200;2022-10-31T00:28:00;7.20;;;3.03;;
35909;SDS011;22004;49.120;-0.200;2022-10-31T00:30:26;10.35;;;2.90;;
35909;SDS011;22004;49.120;-0.200;2022-10-31T00:32:51;8.88;;;3.00;;
35909;SDS011;22004;49.120;-0.200;2022-10-31T00:35:17;5.30;;;2.50;;
35909;SDS011;22004;49.120;-0.200;2022-10-31T00:37:42;7.63;;;2.92;;
35909;SDS011;22004;49.120;-0.200;2022-10-31T00:40:08;9.00;;;3.28;;
35909;SDS011;22004;49.120;-0.200;2022-10-31T00:42:34;7.28;;;3.00;;
35909;SDS011;22004;49.120;-0.200;2022-10-31T00:44:59;9.23;;;2.65;;
35909;SDS011;22004;49.120;-0.200;2022-10-31T00:47:24;4.72;;;2.50;;
35909;SDS011;22004;49.120;-0.200;2022-10-31T00:49:50;7.40;;;2.30;;
35909;SDS011;22004;49.120;-0.200;2022-10-31T00:52:15;6.22;;;2.40;;
35909;SDS011;22004;49.120;-0.200;2022-10-31T00:54:40;5.78;;;2.60;;
35909;SDS011;22004;49.120;-0.200;2022-10-31T00:57:06;5.68;;;2.80;;
35909;SDS011;22004;49.120;-0.200;2022-10-31T00:59:31;9.45;;;2.85;;
35909;SDS011;22004;49.120;-0.200;2022-10-31T01:01:56;8.65;;;3.35;;
35909;SDS011;22004;49.120;-0.200;2022-10-31T01:04:22;9.25;;;3.22;;
35909;SDS011;22004;49.120;-0.200;2022-10-31T01:06:47;7.25;;;2.65;;
35909;SDS011;22004;49.120;-0.200;2022-10-31T01:09:12;6.55;;;2.70;;
35909;SDS011;22004;49.120;-0.200;2022-10-31T01:11:38;6.60;;;2.47;;
35909;SDS011;22004;49.120;-0.200;2022-10-31T01:14:03;8.85;;;2.85;;
35909;SDS011;22004;49.120;-0.200;2022-10-31T01:16:28;10.25;;;3.10;;
35909;SDS011;22004;49.120;-0.200;2022-10-31T01:18:57;5.43;;;2.42;;
35909;SDS011;22004;49.120;-0.200;2022-10-31T01:21:23;5.38;;;2.60;;
35909;SDS011;22004;49.120;-0.200;2022-10-31T01:23:51;5.80;;;2.92;;
35909;SDS011;22004;49.120;-0.200;2022-10-31T01:26:21;6.38;;;2.85;;
35909;SDS011;22004;49.120;-0.200;2022-10-31T01:28:48;6.57;;;3.05;;
35909;SDS011;22004;49.120;-0.200;2022-10-31T01:31:16;7.82;;;3.05;;
35909;SDS011;22004;49.120;-0.200;2022-10-31T01:33:43;13.35;;;3.58;;
35909;SDS011;22004;49.120;-0.200;2022-10-31T01:36:16;9.43;;;3.92;;
35909;SDS011;22004;49.120;-0.200;2022-10-31T01:39:04;15.35;;;4.40;;
35909;SDS011;22004;49.120;-0.200;2022-10-31T01:41:32;13.73;;;4.60;;
35909;SDS011;22004;49.120;-0.200;2022-10-31T01:44:00;10.20;;;4.10;;
35909;SDS011;22004;49.120;-0.200;2022-10-31T01:46:36;10.35;;;4.97;;
35909;SDS011;22004;49.120;-0.200;2022-10-31T01:49:05;8.55;;;3.33;;
35909;SDS011;22004;49.120;-0.200;2022-10-31T01:51:36;5.43;;;3.42;;
35909;SDS011;22004;49.120;-0.200;2022-10-31T01:54:06;16.30;;;6.45;;
35909;SDS011;22004;49.120;-0.200;2022-10-31T01:56:37;11.60;;;4.32;;
35909;SDS011;22004;49.120;-0.200;2022-10-31T01:59:06;8.70;;;4.15;;
35909;SDS011;22004;49.120;-0.200;2022-10-31T02:01:36;11.93;;;4.78;;
35909;SDS011;22004;49.120;-0.200;2022-10-31T02:04:02;14.73;;;5.85;;
35909;SDS011;22004;49.120;-0.200;2022-10-31T02:09:00;14.35;;;5.47;;
35909;SDS011;22004;49.120;-0.200;2022-10-31T02:11:28;10.00;;;4.40;;
35909;SDS011;22004;49.120;-0.200;2022-10-31T02:13:54;8.70;;;3.78;;
35909;SDS011;22004;49.120;-0.200;2022-10-31T02:16:20;13.35;;;5.15;;
35909;SDS011;22004;49.120;-0.200;2022-10-31T02:18:45;10.30;;;5.45;;
35909;SDS011;22004;49.120;-0.200;2022-10-31T02:21:14;12.90;;;5.60;;
35909;SDS011;22004;49.120;-0.200;2022-10-31T02:26:52;11.57;;;4.50;;
35909;SDS011;22004;49.120;-0.200;2022-10-31T02:29:44;13.38;;;4.95;;
35909;SDS011;22004;49.120;-0.200;2022-10-31T02:32:38;7.60;;;3.92;;
35909;SDS011;22004;49.120;-0.200;2022-10-31T02:35:24;16.73;;;5.43;;
35909;SDS011;22004;49.120;-0.200;2022-10-31T02:46:13;8.20;;;4.43;;
35909;SDS011;22004;49.120;-0.200;2022-10-31T02:48:44;7.25;;;3.78;;
35909;SDS011;22004;49.120;-0.200;2022-10-31T02:51:13;14.68;;;4.75;;
35909;SDS011;22004;49.120;-0.200;2022-10-31T02:53:38;9.30;;;3.80;;
35909;SDS011;22004;49.120;-0.200;2022-10-31T02:56:18;6.63;;;3.88;;
35909;SDS011;22004;49.120;-0.200;2022-10-31T03:17:16;12.48;;;4.45;;
35909;SDS011;22004;49.120;-0.200;2022-10-31T03:19:49;9.68;;;3.60;;
35909;SDS011;22004;49.120;-0.200;2022-10-31T03:22:20;14.38;;;4.38;;
35909;SDS011;22004;49.120;-0.200;2022-10-31T03:24:48;11.35;;;4.15;;
35909;SDS011;22004;49.120;-0.200;2022-10-31T03:27:18;7.30;;;3.78;;
35909;SDS011;22004;49.120;-0.200;2022-10-31T03:29:49;7.75;;;3.53;;
35909;SDS011;22004;49.120;-0.200;2022-10-31T03:32:24;11.68;;;3.88;;
35909;SDS011;22004;49.120;-0.200;2022-10-31T03:34:54;8.27;;;3.85;;
35909;SDS011;22004;49.120;-0.200;2022-10-31T03:37:23;11.55;;;3.78;;
35909;SDS011;22004;49.120;-0.200;2022-10-31T03:39:52;10.23;;;3.95;;
35909;SDS011;22004;49.120;-0.200;2022-10-31T03:42:24;9.95;;;3.80;;
35909;SDS011;22004;49.120;-0.200;2022-10-31T03:45:11;9.93;;;3.53;;
35909;SDS011;22004;49.120;-0.200;2022-10-31T03:47:39;12.02;;;3.25;;
35909;SDS011;22004;49.120;-0.200;2022-10-31T03:50:08;8.07;;;3.17;;
35909;SDS011;22004;49.120;-0.200;2022-10-31T03:52:37;8.38;;;3.33;;
35909;SDS011;22004;49.120;-0.200;2022-10-31T03:55:30;7.85;;;3.20;;
35909;SDS011;22004;49.120;-0.200;2022-10-31T03:58:03;8.50;;;3.47;;
35909;SDS011;22004;49.120;-0.200;2022-10-31T04:00:34;8.70;;;3.22;;
35909;SDS011;22004;49.120;-0.200;2022-10-31T04:03:06;8.98;;;3.53;;
35909;SDS011;22004;49.120;-0.200;2022-10-31T04:05:36;8.13;;;3.55;;
35909;SDS011;22004;49.120;-0.200;2022-10-31T04:08:04;9.43;;;3.35;;
35909;SDS011;22004;49.120;-0.200;2022-10-31T04:10:33;7.85;;;3.25;;
35909;SDS011;22004;49.120;-0.200;2022-10-31T04:13:06;7.07;;;3.22;;
35909;SDS011;22004;49.120;-0.200;2022-10-31T04:15:34;9.13;;;3.33;;
35909;SDS011;22004;49.120;-0.200;2022-10-31T04:18:01;11.30;;;3.53;;
35909;SDS011;22004;49.120;-0.200;2022-10-31T04:20:33;7.38;;;3.22;;
35909;SDS011;22004;49.120;-0.200;2022-10-31T04:23:00;7.57;;;3.92;;
35909;SDS011;22004;49.120;-0.200;2022-10-31T04:25:26;6.93;;;3.83;;
35909;SDS011;22004;49.120;-0.200;2022-10-31T04:27:52;8.20;;;3.20;;
35909;SDS011;22004;49.120;-0.200;2022-10-31T04:30:17;5.05;;;3.03;;
35909;SDS011;22004;49.120;-0.200;2022-10-31T04:32:43;8.93;;;3.35;;
35909;SDS011;22004;49.120;-0.200;2022-10-31T04:35:08;8.40;;;3.72;;
35909;SDS011;22004;49.120;-0.200;2022-10-31T04:37:33;10.18;;;3.95;;
35909;SDS011;22004;49.120;-0.200;2022-10-31T04:39:59;8.73;;;3.95;;
35909;SDS011;22004;49.120;-0.200;2022-10-31T04:42:24;8.48;;;3.88;;
35909;SDS011;22004;49.120;-0.200;2022-10-31T04:44:49;9.90;;;4.53;;
35909;SDS011;22004;49.120;-0.200;2022-10-31T04:47:15;11.02;;;3.42;;
35909;SDS011;22004;49.120;-0.200;2022-10-31T04:49:40;9.85;;;3.88;;
35909;SDS011;22004;49.120;-0.200;2022-10-31T04:52:05;11.13;;;4.15;;
35909;SDS011;22004;49.120;-0.200;2022-10-31T04:54:32;10.93;;;4.30;;
35909;SDS011;22004;49.120;-0.200;2022-10-31T04:56:57;6.93;;;4.88;;
35909;SDS011;22004;49.120;-0.200;2022-10-31T04:59:22;8.45;;;4.15;;
35909;SDS011;22004;49.120;-0.200;2022-10-31T05:01:48;9.13;;;3.78;;
35909;SDS011;22004;49.120;-0.200;2022-10-31T05:04:13;10.55;;;4.05;;
35909;SDS011;22004;49.120;-0.200;2022-10-31T05:06:38;7.90;;;4.07;;
35909;SDS011;22004;49.120;-0.200;2022-10-31T05:09:03;7.95;;;3.80;;
35909;SDS011;22004;49.120;-0.200;2022-10-31T05:11:29;9.57;;;4.18;;
35909;SDS011;22004;49.120;-0.200;2022-10-31T05:13:54;13.45;;;4.65;;
35909;SDS011;22004;49.120;-0.200;2022-10-31T05:16:19;9.35;;;4.63;;
35909;SDS011;22004;49.120;-0.200;2022-10-31T05:18:45;6.75;;;4.28;;
35909;SDS011;22004;49.120;-0.200;2022-10-31T05:21:10;8.68;;;4.55;;
35909;SDS011;22004;49.120;-0.200;2022-10-31T05:23:36;10.77;;;4.93;;
35909;SDS011;22004;49.120;-0.200;2022-10-31T05:26:01;10.65;;;4.85;;
35909;SDS011;22004;49.120;-0.200;2022-10-31T05:28:26;7.40;;;3.95;;
35909;SDS011;22004;49.120;-0.200;2022-10-31T05:30:52;7.55;;;3.95;;
35909;SDS011;22004;49.120;-0.200;2022-10-31T05:33:17;9.93;;;4.20;;
35909;SDS011;22004;49.120;-0.200;2022-10-31T05:35:42;10.15;;;4.88;;
35909;SDS011;22004;49.120;-0.200;2022-10-31T05:38:08;7.47;;;3.38;;
35909;SDS011;22004;49.120;-0.200;2022-10-31T05:40:33;8.82;;;3.78;;
35909;SDS011;22004;49.120;-0.200;2022-10-31T05:42:58;7.60;;;3.60;;
35909;SDS011;22004;49.120;-0.200;2022-10-31T05:45:24;13.68;;;4.93;;
35909;SDS011;22004;49.120;-0.200;2022-10-31T05:47:53;8.95;;;4.20;;
35909;SDS011;22004;49.120;-0.200;2022-10-31T05:50:20;11.07;;;5.50;;
35909;SDS011;22004;49.120;-0.200;2022-10-31T05:52:46;10.40;;;4.07;;
35909;SDS011;22004;49.120;-0.200;2022-10-31T05:55:11;10.13;;;4.72;;
35909;SDS011;22004;49.120;-0.200;2022-10-31T05:57:37;12.20;;;4.63;;
35909;SDS011;22004;49.120;-0.200;2022-10-31T06:00:03;7.07;;;4.28;;
35909;SDS011;22004;49.120;-0.200;2022-10-31T06:02:30;8.18;;;4.38;;
35909;SDS011;22004;49.120;-0.200;2022-10-31T06:04:59;6.45;;;4.07;;
35909;SDS011;22004;49.120;-0.200;2022-10-31T06:07:25;9.05;;;5.13;;
35909;SDS011;22004;49.120;-0.200;2022-10-31T06:09:51;10.52;;;4.82;;
35909;SDS011;22004;49.120;-0.200;2022-10-31T06:12:16;5.78;;;4.30;;
35909;SDS011;22004;49.120;-0.200;2022-10-31T06:14:41;9.20;;;4.68;;
35909;SDS011;22004;49.120;-0.200;2022-10-31T06:17:07;9.82;;;5.22;;
35909;SDS011;22004;49.120;-0.200;2022-10-31T06:19:32;8.27;;;3.70;;
35909;SDS011;22004;49.120;-0.200;2022-10-31T06:21:57;7.57;;;4.00;;
35909;SDS011;22004;49.120;-0.200;2022-10-31T06:24:23;9.20;;;4.60;;
35909;SDS011;22004;49.120;-0.200;2022-10-31T06:26:48;6.35;;;3.80;;
35909;SDS011;22004;49.120;-0.200;2022-10-31T06:29:13;8.73;;;4.53;;
35909;SDS011;22004;49.120;-0.200;2022-10-31T06:31:38;8.07;;;4.53;;
35909;SDS011;22004;49.120;-0.200;2022-10-31T06:34:04;10.02;;;5.10;;
35909;SDS011;22004;49.120;-0.200;2022-10-31T06:36:29;5.07;;;4.03;;
35909;SDS011;22004;49.120;-0.200;2022-10-31T06:38:54;8.15;;;3.67;;
35909;SDS011;22004;49.120;-0.200;2022-10-31T06:41:20;7.00;;;4.40;;
35909;SDS011;22004;49.120;-0.200;2022-10-31T06:43:46;8.40;;;4.63;;
35909;SDS011;22004;49.120;-0.200;2022-10-31T06:46:12;7.90;;;4.32;;
35909;SDS011;22004;49.120;-0.200;2022-10-31T06:48:37;5.45;;;4.07;;
